createdAt,value
2022-09-09T00:09:56.011Z,6.50
2022-09-09T00:20:58.423Z,6.40
2022-09-09T00:32:03.043Z,7.10
2022-09-09T00:42:56.363Z,7.80
2022-09-09T00:54:19.996Z,8.10
2022-09-09T01:04:40.203Z,8.30
2022-09-09T01:14:55.302Z,8.20
2022-09-09T01:25:55.534Z,8.50
2022-09-09T01:36:22.537Z,8.80
2022-09-09T01:46:51.924Z,9.40
2022-09-09T01:57:40.324Z,9.20
2022-09-09T02:08:47.596Z,8.90
2022-09-09T02:19:52.485Z,9.60
2022-09-09T02:30:29.687Z,9.20
2022-09-09T02:40:56.552Z,9.00
2022-09-09T02:51:28.223Z,9.00
2022-09-09T03:02:10.840Z,9.30
2022-09-09T03:12:27.944Z,9.00
2022-09-09T03:23:00.395Z,8.40
2022-09-09T03:33:19.913Z,8.20
2022-09-09T03:44:17.759Z,8.80
2022-09-09T03:54:36.392Z,8.40
2022-09-09T04:05:01.239Z,8.20
2022-09-09T04:15:30.541Z,8.70
2022-09-09T04:26:31.755Z,7.80
2022-09-09T04:37:38.940Z,7.60
2022-09-09T04:48:41.797Z,7.50
2022-09-09T04:59:22.575Z,7.60
2022-09-09T05:10:27.176Z,7.40
2022-09-09T05:21:25.361Z,7.10
2022-09-09T05:32:34.774Z,6.80
2022-09-09T05:43:24.304Z,7.20
2022-09-09T05:53:35.823Z,7.10
2022-09-09T06:04:50.254Z,7.10
2022-09-09T06:15:36.289Z,7.10
2022-09-09T06:25:50.147Z,7.30
2022-09-09T06:36:00.258Z,6.70
2022-09-09T06:46:29.036Z,7.10
2022-09-09T07:07:14.808Z,8.20
2022-09-09T07:17:37.992Z,7.80
2022-09-09T07:27:57.673Z,8.50
2022-09-09T07:38:46.998Z,9.10
2022-09-09T07:49:54.108Z,9.70
2022-09-09T08:00:54.683Z,10.00
2022-09-09T08:11:38.611Z,10.90
2022-09-09T08:22:31.869Z,11.40
2022-09-09T08:33:10.304Z,13.00
2022-09-09T08:43:24.380Z,13.70
2022-09-09T08:54:03.530Z,14.50
2022-09-09T09:05:18.061Z,15.10
2022-09-09T09:15:50.401Z,15.10
2022-09-09T09:26:20.237Z,16.30
2022-09-09T09:36:36.147Z,17.00
2022-09-09T09:47:21.509Z,18.10
2022-09-09T09:58:30.267Z,17.80
2022-09-09T10:08:59.397Z,17.60
2022-09-09T10:19:19.224Z,19.30
2022-09-09T10:30:00.839Z,19.50
2022-09-09T10:40:57.400Z,21.10
2022-09-09T10:52:06.283Z,20.40
2022-09-09T11:02:43.293Z,21.70
2022-09-09T11:13:01.611Z,21.90
2022-09-09T11:23:52.541Z,21.80
2022-09-09T11:34:39.227Z,22.10
2022-09-09T11:44:58.527Z,21.50
2022-09-09T11:55:34.722Z,23.30
2022-09-09T12:05:57.636Z,24.10
2022-09-09T12:16:39.613Z,25.80
2022-09-09T12:27:46.671Z,25.90
2022-09-09T12:38:30.243Z,27.40
2022-09-09T12:49:34.492Z,28.10
2022-09-09T13:00:09.311Z,27.10
2022-09-09T13:11:28.218Z,27.80
2022-09-09T13:22:35.142Z,27.90
2022-09-09T13:32:57.399Z,28.90
2022-09-09T13:54:38.146Z,29.70
2022-09-09T14:04:45.034Z,28.50
2022-09-09T14:14:53.629Z,26.00
2022-09-09T14:24:58.817Z,24.60
2022-09-09T14:35:05.324Z,25.50
2022-09-09T14:45:09.165Z,26.20
2022-09-09T14:55:16.389Z,25.00
2022-09-09T15:05:26.079Z,23.80
2022-09-09T15:15:38.941Z,22.20
2022-09-09T15:26:07.261Z,25.10
2022-09-09T15:36:23.040Z,25.00
2022-09-09T15:47:06.186Z,22.90
2022-09-09T15:57:20.482Z,22.40
2022-09-09T16:07:59.551Z,22.80
2022-09-09T16:18:48.776Z,23.40
2022-09-09T16:29:15.642Z,25.70
2022-09-09T16:39:43.750Z,24.20
2022-09-09T16:50:18.922Z,25.30
2022-09-09T17:00:48.104Z,25.20
2022-09-09T17:11:04.136Z,22.90
2022-09-09T17:21:27.208Z,23.00
2022-09-09T17:31:35.255Z,22.30
2022-09-09T17:41:42.165Z,21.20
2022-09-09T17:52:08.554Z,26.20
2022-09-09T18:02:22.062Z,23.90
2022-09-09T18:12:41.485Z,25.80
2022-09-09T18:22:52.729Z,25.00
2022-09-09T18:33:14.292Z,24.40
2022-09-09T18:43:38.083Z,25.10
2022-09-09T18:54:17.272Z,23.70
2022-09-09T19:04:27.655Z,21.50
2022-09-09T19:14:38.712Z,16.80
2022-09-09T19:24:50.008Z,16.10
2022-09-09T19:35:54.285Z,17.50
2022-09-09T19:46:08.805Z,20.20
2022-09-09T19:56:30.870Z,20.20
2022-09-09T20:06:47.044Z,21.50
2022-09-09T20:27:55.634Z,17.00
2022-09-09T20:38:08.044Z,16.70
2022-09-09T20:49:03.282Z,16.80
2022-09-09T20:59:27.375Z,16.60
2022-09-09T21:09:47.567Z,16.80
2022-09-09T21:19:58.595Z,16.80
2022-09-09T21:30:17.597Z,17.30
2022-09-09T21:40:36.472Z,16.30
2022-09-09T21:50:51.491Z,14.30
2022-09-09T22:01:09.264Z,15.10
2022-09-09T22:11:17.793Z,15.70
2022-09-09T22:21:34.399Z,14.80
2022-09-09T22:31:43.502Z,15.50
2022-09-09T22:41:54.799Z,13.50
2022-09-09T22:52:11.298Z,13.80
2022-09-09T23:02:27.374Z,13.60
2022-09-09T23:12:42.619Z,13.50
2022-09-09T23:23:13.492Z,13.30
2022-09-09T23:33:16.852Z,14.20
2022-09-09T23:43:25.667Z,14.00
2022-09-09T23:53:57.738Z,12.30
